createdAt,value
2023-05-19T00:00:50.493Z,1.87
2023-05-19T00:03:24.835Z,1.73
2023-05-19T00:05:59.798Z,1.70
2023-05-19T00:08:34.547Z,1.50
2023-05-19T00:11:08.341Z,1.70
2023-05-19T00:13:41.543Z,1.63
2023-05-19T00:16:15.183Z,1.67
2023-05-19T00:18:48.990Z,1.80
2023-05-19T00:21:22.182Z,1.63
2023-05-19T00:23:55.634Z,1.97
2023-05-19T00:26:28.663Z,2.07
2023-05-19T00:29:07.675Z,1.60
2023-05-19T00:31:40.628Z,1.87
2023-05-19T00:34:15.590Z,1.60
2023-05-19T00:36:48.594Z,1.50
2023-05-19T00:39:21.662Z,2.10
2023-05-19T00:41:54.764Z,1.80
2023-05-19T00:44:27.564Z,1.80
2023-05-19T00:47:00.855Z,2.20
2023-05-19T00:49:34.055Z,2.10
2023-05-19T00:52:07.745Z,1.93
2023-05-19T00:54:40.744Z,1.87
2023-05-19T00:57:15.077Z,1.70
2023-05-19T00:59:50.974Z,2.20
2023-05-19T01:02:24.527Z,2.00
2023-05-19T01:04:57.770Z,1.80
2023-05-19T01:07:30.722Z,1.90
2023-05-19T01:10:04.746Z,1.97
2023-05-19T01:12:37.991Z,2.07
2023-05-19T01:15:11.850Z,1.87
2023-05-19T01:17:54.897Z,2.20
2023-05-19T01:20:52.821Z,2.20
2023-05-19T01:23:49.759Z,1.60
2023-05-19T01:27:06.437Z,1.57
2023-05-19T01:30:11.950Z,1.90
2023-05-19T01:32:46.736Z,1.67
2023-05-19T01:35:24.922Z,1.83
2023-05-19T01:37:59.383Z,1.90
2023-05-19T01:40:33.751Z,1.60
2023-05-19T01:43:09.031Z,2.00
2023-05-19T01:45:42.621Z,1.90
2023-05-19T01:48:16.239Z,2.17
2023-05-19T01:50:49.460Z,2.03
2023-05-19T01:53:22.314Z,1.97
2023-05-19T01:55:56.770Z,2.00
2023-05-19T01:58:52.351Z,2.33
2023-05-19T02:01:53.816Z,1.80
2023-05-19T02:04:43.277Z,1.80
2023-05-19T02:07:30.358Z,1.97
2023-05-19T02:10:10.507Z,1.93
2023-05-19T02:12:46.331Z,2.00
2023-05-19T02:15:26.997Z,1.87
2023-05-19T02:18:04.058Z,2.00
2023-05-19T02:20:37.712Z,1.87
2023-05-19T02:23:12.778Z,1.90
2023-05-19T02:25:46.195Z,2.07
2023-05-19T02:28:19.387Z,1.63
2023-05-19T02:30:52.403Z,1.87
2023-05-19T02:33:27.718Z,1.97
2023-05-19T02:36:00.604Z,2.20
2023-05-19T02:38:35.045Z,2.20
2023-05-19T02:41:07.917Z,1.90
2023-05-19T02:43:41.622Z,2.37
2023-05-19T02:46:14.522Z,2.07
2023-05-19T02:48:47.854Z,2.17
2023-05-19T02:51:20.682Z,2.00
2023-05-19T02:53:53.790Z,2.10
2023-05-19T02:56:28.284Z,2.50
2023-05-19T02:59:01.712Z,2.17
2023-05-19T03:01:34.638Z,2.00
2023-05-19T03:04:07.921Z,1.90
2023-05-19T03:06:42.207Z,2.20
2023-05-19T03:09:15.285Z,1.90
2023-05-19T03:11:48.287Z,2.00
2023-05-19T03:14:24.262Z,2.10
2023-05-19T03:16:57.249Z,2.03
2023-05-19T03:19:32.538Z,2.10
2023-05-19T03:22:05.437Z,2.00
2023-05-19T03:24:39.924Z,1.97
2023-05-19T03:27:13.527Z,2.33
2023-05-19T03:29:46.399Z,2.00
2023-05-19T03:32:20.718Z,2.07
2023-05-19T03:34:53.863Z,2.00
2023-05-19T03:37:26.987Z,2.10
2023-05-19T03:40:00.450Z,1.90
2023-05-19T03:42:33.817Z,1.83
2023-05-19T03:45:07.856Z,2.20
2023-05-19T03:47:41.281Z,2.17
2023-05-19T03:50:48.493Z,2.30
2023-05-19T03:53:26.513Z,2.30
2023-05-19T03:56:00.852Z,2.43
2023-05-19T03:58:37.180Z,1.87
2023-05-19T04:01:11.321Z,2.50
2023-05-19T04:03:44.211Z,2.47
2023-05-19T04:06:20.784Z,2.23
2023-05-19T04:08:53.620Z,2.60
2023-05-19T04:11:26.626Z,2.17
2023-05-19T04:13:59.618Z,2.20
2023-05-19T04:16:33.210Z,2.97
2023-05-19T04:19:06.273Z,2.03
2023-05-19T04:21:41.154Z,2.40
2023-05-19T04:24:14.225Z,2.40
2023-05-19T04:26:48.318Z,2.17
2023-05-19T04:29:24.119Z,2.17
2023-05-19T04:32:01.180Z,2.50
2023-05-19T04:34:35.425Z,2.10
2023-05-19T04:37:10.338Z,2.40
2023-05-19T04:39:46.503Z,2.70
2023-05-19T04:42:20.305Z,2.60
2023-05-19T04:44:54.406Z,2.57
2023-05-19T04:47:30.910Z,3.23
2023-05-19T04:50:05.381Z,2.80
2023-05-19T04:52:38.245Z,2.83
2023-05-19T04:55:13.401Z,2.60
2023-05-19T04:57:47.444Z,3.13
2023-05-19T05:00:21.266Z,3.00
2023-05-19T05:03:05.556Z,2.33
2023-05-19T05:05:38.782Z,2.40
2023-05-19T05:08:11.931Z,2.50
2023-05-19T05:10:53.592Z,2.20
2023-05-19T05:13:30.516Z,2.23
2023-05-19T05:16:07.221Z,1.90
2023-05-19T05:18:42.177Z,2.77
2023-05-19T05:21:17.139Z,2.20
2023-05-19T05:23:51.694Z,2.30
2023-05-19T05:26:30.061Z,2.17
2023-05-19T05:29:04.211Z,2.37
2023-05-19T05:31:37.854Z,2.27
2023-05-19T05:34:11.372Z,2.50
2023-05-19T05:36:44.516Z,2.57
2023-05-19T05:39:17.588Z,2.23
2023-05-19T05:41:51.482Z,2.47
2023-05-19T05:44:25.906Z,2.37
2023-05-19T05:46:59.875Z,2.23
2023-05-19T05:49:33.038Z,1.77
2023-05-19T05:52:08.034Z,2.30
2023-05-19T05:54:47.823Z,2.00
2023-05-19T05:57:23.302Z,2.10
2023-05-19T05:59:56.930Z,1.90
2023-05-19T06:02:29.960Z,1.50
2023-05-19T06:05:06.008Z,1.50
2023-05-19T06:07:40.173Z,1.20
2023-05-19T06:10:13.344Z,1.30
2023-05-19T06:12:46.590Z,1.30
2023-05-19T06:15:19.579Z,1.30
2023-05-19T06:17:56.683Z,1.50
2023-05-19T06:20:29.820Z,1.40
2023-05-19T06:23:03.748Z,1.00
2023-05-19T06:25:36.845Z,1.10
2023-05-19T06:28:09.694Z,1.30
2023-05-19T06:30:43.548Z,1.30
2023-05-19T06:33:32.216Z,1.37
2023-05-19T06:36:05.792Z,1.13
2023-05-19T06:38:38.647Z,1.27
2023-05-19T06:41:13.234Z,1.47
2023-05-19T06:43:47.012Z,1.47
2023-05-19T06:46:20.520Z,1.00
2023-05-19T06:48:53.470Z,1.20
2023-05-19T06:51:29.873Z,1.10
2023-05-19T06:54:03.389Z,1.10
2023-05-19T06:56:36.746Z,1.17
2023-05-19T06:59:09.653Z,1.48
2023-05-19T07:01:44.317Z,1.20
2023-05-19T07:04:17.218Z,1.20
2023-05-19T07:06:50.600Z,1.07
2023-05-19T07:09:24.023Z,1.20
2023-05-19T07:11:57.709Z,1.27
2023-05-19T07:14:31.098Z,1.07
2023-05-19T07:17:05.614Z,1.13
2023-05-19T07:19:39.669Z,1.07
2023-05-19T07:22:12.756Z,1.23
2023-05-19T07:24:45.833Z,1.10
2023-05-19T07:27:18.928Z,1.23
2023-05-19T07:29:51.980Z,1.10
2023-05-19T07:32:25.357Z,1.35
2023-05-19T07:34:58.317Z,1.60
2023-05-19T07:37:31.682Z,1.20
2023-05-19T07:40:06.936Z,1.30
2023-05-19T07:42:39.854Z,1.10
2023-05-19T07:45:13.010Z,1.50
2023-05-19T07:47:46.191Z,1.40
2023-05-19T07:50:19.024Z,1.42
2023-05-19T07:52:52.013Z,1.30
2023-05-19T07:55:25.035Z,1.20
2023-05-19T07:57:58.049Z,1.10
2023-05-19T08:00:31.326Z,1.00
2023-05-19T08:03:04.986Z,1.48
2023-05-19T08:05:38.500Z,1.10
2023-05-19T08:08:11.914Z,1.08
2023-05-19T08:10:45.184Z,1.25
2023-05-19T08:13:18.850Z,1.35
2023-05-19T08:15:52.177Z,0.98
2023-05-19T08:18:28.364Z,1.27
2023-05-19T08:21:01.536Z,1.13
2023-05-19T08:23:34.605Z,1.00
2023-05-19T08:26:07.616Z,1.15
2023-05-19T08:28:40.471Z,0.85
2023-05-19T08:31:14.558Z,1.00
2023-05-19T08:33:47.466Z,1.08
2023-05-19T08:36:22.235Z,1.23
2023-05-19T08:38:55.222Z,1.15
2023-05-19T08:41:28.220Z,1.15
2023-05-19T08:44:01.148Z,1.50
2023-05-19T08:46:49.614Z,1.60
2023-05-19T08:49:31.165Z,1.45
2023-05-19T08:52:18.441Z,1.60
2023-05-19T08:54:56.045Z,1.35
2023-05-19T08:57:29.042Z,1.30
2023-05-19T09:00:08.910Z,1.20
2023-05-19T09:02:50.626Z,1.30
2023-05-19T09:05:34.583Z,1.15
2023-05-19T09:08:08.236Z,1.33
2023-05-19T09:10:41.227Z,1.10
2023-05-19T09:13:14.452Z,1.17
2023-05-19T09:15:48.187Z,1.20
2023-05-19T09:18:21.386Z,1.38
2023-05-19T09:21:03.165Z,1.60
2023-05-19T09:23:36.336Z,1.23
2023-05-19T09:26:10.676Z,1.30
2023-05-19T09:28:44.375Z,1.10
2023-05-19T09:31:17.277Z,1.73
2023-05-19T09:33:53.820Z,1.45
2023-05-19T09:36:29.754Z,1.05
2023-05-19T09:39:12.680Z,1.42
2023-05-19T09:41:46.097Z,1.20
2023-05-19T09:44:30.491Z,1.13
2023-05-19T09:47:03.670Z,1.27
2023-05-19T09:49:36.422Z,1.10
2023-05-19T09:52:11.105Z,1.10
2023-05-19T09:54:45.438Z,1.13
2023-05-19T09:57:18.662Z,1.45
2023-05-19T09:59:51.680Z,1.30
2023-05-19T10:02:26.093Z,1.40
2023-05-19T10:04:59.246Z,1.38
2023-05-19T10:07:32.956Z,1.10
2023-05-19T10:10:09.703Z,1.10
2023-05-19T10:12:43.221Z,1.17
2023-05-19T10:15:17.747Z,1.20
2023-05-19T10:17:51.442Z,1.20
2023-05-19T10:20:26.356Z,1.20
2023-05-19T10:22:59.135Z,1.13
2023-05-19T10:25:34.769Z,1.50
2023-05-19T10:28:11.717Z,1.05
2023-05-19T10:30:50.887Z,1.20
2023-05-19T10:33:37.150Z,1.00
2023-05-19T10:36:23.226Z,1.52
2023-05-19T10:39:21.928Z,1.50
2023-05-19T10:42:25.517Z,2.30
2023-05-19T10:45:18.450Z,1.35
2023-05-19T10:47:51.783Z,1.20
2023-05-19T10:50:25.115Z,1.10
2023-05-19T10:52:57.989Z,1.20
2023-05-19T10:55:58.995Z,1.23
2023-05-19T10:58:44.315Z,6.03
2023-05-19T11:01:19.856Z,1.27
2023-05-19T11:03:57.264Z,1.40
2023-05-19T11:06:36.145Z,1.95
2023-05-19T11:09:09.047Z,1.23
2023-05-19T11:11:55.450Z,1.20
2023-05-19T11:14:29.231Z,2.00
2023-05-19T11:17:02.400Z,1.10
2023-05-19T11:19:36.194Z,1.10
2023-05-19T11:22:11.764Z,1.20
2023-05-19T11:24:52.469Z,0.98
2023-05-19T11:27:38.397Z,1.42
2023-05-19T11:30:15.250Z,1.48
2023-05-19T11:32:48.689Z,1.00
2023-05-19T11:35:22.623Z,1.30
2023-05-19T11:37:56.439Z,0.98
2023-05-19T11:40:30.591Z,1.30
2023-05-19T11:43:03.832Z,0.98
2023-05-19T11:45:37.313Z,2.00
2023-05-19T11:48:13.913Z,1.33
2023-05-19T11:50:46.836Z,1.40
2023-05-19T11:53:21.099Z,1.33
2023-05-19T11:55:54.134Z,1.10
2023-05-19T11:58:28.182Z,1.60
2023-05-19T12:01:04.391Z,1.10
2023-05-19T12:03:37.744Z,1.00
2023-05-19T12:06:10.969Z,1.10
2023-05-19T12:08:44.411Z,1.10
2023-05-19T12:11:18.892Z,0.95
2023-05-19T12:13:58.578Z,1.10
2023-05-19T12:16:35.454Z,1.20
2023-05-19T12:19:09.842Z,1.17
2023-05-19T12:21:42.956Z,1.27
2023-05-19T12:24:16.308Z,1.10
2023-05-19T12:26:50.528Z,1.10
2023-05-19T12:29:28.970Z,1.15
2023-05-19T12:32:03.056Z,1.13
2023-05-19T12:34:37.555Z,1.10
2023-05-19T12:37:11.440Z,0.90
2023-05-19T12:39:44.409Z,0.98
2023-05-19T12:42:17.522Z,1.10
2023-05-19T12:44:52.726Z,1.10
2023-05-19T12:47:35.942Z,0.90
2023-05-19T12:50:10.387Z,0.98
2023-05-19T12:52:47.419Z,1.42
2023-05-19T12:55:22.321Z,1.15
2023-05-19T12:57:57.544Z,1.13
2023-05-19T13:00:32.539Z,1.10
2023-05-19T13:03:15.958Z,1.00
2023-05-19T13:05:51.104Z,1.00
2023-05-19T13:08:24.850Z,1.00
2023-05-19T13:10:57.576Z,1.00
2023-05-19T13:13:30.349Z,1.00
2023-05-19T13:16:03.151Z,1.10
2023-05-19T13:18:37.579Z,1.25
2023-05-19T13:21:10.640Z,1.20
2023-05-19T13:23:43.575Z,1.05
2023-05-19T13:26:16.654Z,1.20
2023-05-19T13:28:49.407Z,1.20
2023-05-19T13:31:22.409Z,1.30
2023-05-19T13:33:55.510Z,1.10
2023-05-19T13:36:28.415Z,1.10
2023-05-19T13:39:01.307Z,1.30
2023-05-19T13:41:35.058Z,1.15
2023-05-19T13:44:07.800Z,1.35
2023-05-19T13:46:45.813Z,1.00
2023-05-19T13:49:19.650Z,1.20
2023-05-19T13:51:57.069Z,1.15
2023-05-19T13:54:30.162Z,1.20
2023-05-19T13:57:02.966Z,1.40
2023-05-19T13:59:45.668Z,1.20
2023-05-19T14:02:26.393Z,1.33
2023-05-19T14:04:59.476Z,1.35
2023-05-19T14:07:35.754Z,1.00
2023-05-19T14:10:09.140Z,1.17
2023-05-19T14:13:04.798Z,1.08
2023-05-19T14:15:37.679Z,1.00
2023-05-19T14:18:11.364Z,1.10
2023-05-19T14:20:44.562Z,1.00
2023-05-19T14:23:17.526Z,0.98
2023-05-19T14:25:50.530Z,1.02
2023-05-19T14:28:23.427Z,1.30
2023-05-19T14:30:57.014Z,1.02
2023-05-19T14:33:34.929Z,1.27
2023-05-19T14:36:09.200Z,1.13
2023-05-19T14:38:42.332Z,1.20
2023-05-19T14:41:15.461Z,1.00
2023-05-19T14:43:48.907Z,0.90
2023-05-19T14:46:21.832Z,1.13
2023-05-19T14:48:54.799Z,1.05
2023-05-19T14:51:27.807Z,1.33
2023-05-19T14:54:02.222Z,1.05
2023-05-19T14:56:35.111Z,1.13
2023-05-19T14:59:08.302Z,1.02
2023-05-19T15:01:41.191Z,1.20
2023-05-19T15:04:14.207Z,1.13
2023-05-19T15:06:52.260Z,1.30
2023-05-19T15:09:31.894Z,1.00
2023-05-19T15:12:04.907Z,1.00
2023-05-19T15:14:37.791Z,1.05
2023-05-19T15:17:10.845Z,1.20
2023-05-19T15:19:44.465Z,1.20
2023-05-19T15:22:17.273Z,1.20
2023-05-19T15:24:50.225Z,1.10
2023-05-19T15:27:25.724Z,0.80
2023-05-19T15:29:58.957Z,1.00
2023-05-19T15:32:32.060Z,1.13
2023-05-19T15:35:05.469Z,1.20
2023-05-19T15:37:38.246Z,1.20
2023-05-19T15:40:11.730Z,1.00
2023-05-19T15:42:44.466Z,1.02
2023-05-19T15:45:17.632Z,1.30
2023-05-19T15:47:50.648Z,0.90
2023-05-19T15:50:23.535Z,1.10
2023-05-19T15:52:56.272Z,1.13
2023-05-19T15:55:29.398Z,0.90
2023-05-19T15:58:02.339Z,0.90
2023-05-19T16:00:35.508Z,1.35
2023-05-19T16:03:08.679Z,1.27
2023-05-19T16:05:41.828Z,1.10
2023-05-19T16:08:14.826Z,1.20
2023-05-19T16:10:47.975Z,1.08
2023-05-19T16:13:21.866Z,1.17
2023-05-19T16:15:54.876Z,1.10
2023-05-19T16:18:29.455Z,0.98
2023-05-19T16:21:02.314Z,0.80
2023-05-19T16:23:37.859Z,1.10
2023-05-19T16:26:14.226Z,1.15
2023-05-19T16:28:47.404Z,1.10
2023-05-19T16:31:21.041Z,1.10
2023-05-19T16:33:55.005Z,1.20
2023-05-19T16:36:28.345Z,1.05
2023-05-19T16:39:01.198Z,1.20
2023-05-19T16:41:34.214Z,1.27
2023-05-19T16:44:07.423Z,1.10
2023-05-19T16:46:40.611Z,1.20
2023-05-19T16:49:13.903Z,1.20
2023-05-19T16:51:48.268Z,1.10
2023-05-19T16:54:25.775Z,0.90
2023-05-19T16:56:58.976Z,0.93
2023-05-19T16:59:32.278Z,1.00
2023-05-19T17:02:05.175Z,1.38
2023-05-19T17:04:38.344Z,0.90
2023-05-19T17:07:17.247Z,0.90
2023-05-19T17:09:52.142Z,1.30
2023-05-19T17:12:26.019Z,1.08
2023-05-19T17:14:58.966Z,1.02
2023-05-19T17:17:31.800Z,1.00
2023-05-19T17:20:05.168Z,1.20
2023-05-19T17:22:38.178Z,0.82
2023-05-19T17:25:11.068Z,1.20
2023-05-19T17:27:43.941Z,0.80
2023-05-19T17:30:16.907Z,1.13
2023-05-19T17:32:49.963Z,1.15
2023-05-19T17:35:22.980Z,1.08
2023-05-19T17:37:56.144Z,0.80
2023-05-19T17:40:29.313Z,1.08
2023-05-19T17:43:02.377Z,0.90
2023-05-19T17:45:35.835Z,1.05
2023-05-19T17:48:08.750Z,1.25
2023-05-19T17:50:42.086Z,0.95
2023-05-19T17:53:16.191Z,1.30
2023-05-19T17:55:55.225Z,1.05
2023-05-19T17:58:29.529Z,1.10
2023-05-19T18:01:02.729Z,1.30
2023-05-19T18:03:36.350Z,1.15
2023-05-19T18:06:11.148Z,1.10
2023-05-19T18:08:50.615Z,1.00
2023-05-19T18:11:24.018Z,1.15
2023-05-19T18:13:57.271Z,1.30
2023-05-19T18:16:33.294Z,1.00
2023-05-19T18:19:06.474Z,1.20
2023-05-19T18:21:39.258Z,1.00
2023-05-19T18:24:12.073Z,1.20
2023-05-19T18:26:45.239Z,1.13
2023-05-19T18:29:18.295Z,1.25
2023-05-19T18:31:51.316Z,1.40
2023-05-19T18:34:24.182Z,1.25
2023-05-19T18:36:57.093Z,1.30
2023-05-19T18:39:29.889Z,1.05
2023-05-19T18:42:03.199Z,1.15
2023-05-19T18:44:36.230Z,1.08
2023-05-19T18:47:09.368Z,1.08
2023-05-19T18:49:42.752Z,1.20
2023-05-19T18:52:16.102Z,1.20
2023-05-19T18:54:50.425Z,1.20
2023-05-19T18:57:23.864Z,1.10
2023-05-19T18:59:57.352Z,1.00
2023-05-19T19:02:30.318Z,1.17
2023-05-19T19:05:04.054Z,1.33
2023-05-19T19:07:44.674Z,1.02
2023-05-19T19:10:17.603Z,1.33
2023-05-19T19:12:50.730Z,1.10
2023-05-19T19:15:23.513Z,1.30
2023-05-19T19:17:57.566Z,1.45
2023-05-19T19:20:30.641Z,1.92
2023-05-19T19:23:06.507Z,1.48
2023-05-19T19:25:39.550Z,1.35
2023-05-19T19:28:13.378Z,1.45
2023-05-19T19:30:46.377Z,1.50
2023-05-19T19:33:19.628Z,1.25
2023-05-19T19:35:52.476Z,1.23
2023-05-19T19:38:25.812Z,1.30
2023-05-19T19:40:58.649Z,1.30
2023-05-19T19:43:31.516Z,1.40
2023-05-19T19:46:04.643Z,1.30
2023-05-19T19:48:37.858Z,1.15
2023-05-19T19:51:10.997Z,1.10
2023-05-19T19:53:44.099Z,2.60
2023-05-19T19:56:17.167Z,1.40
2023-05-19T19:58:50.341Z,1.23
2023-05-19T20:01:27.433Z,1.23
2023-05-19T20:04:00.855Z,1.30
2023-05-19T20:06:34.352Z,1.38
2023-05-19T20:09:08.467Z,0.98
2023-05-19T20:11:42.347Z,1.55
2023-05-19T20:14:15.854Z,1.65
2023-05-19T20:16:48.842Z,1.23
2023-05-19T20:19:22.348Z,1.20
2023-05-19T20:21:55.363Z,1.20
2023-05-19T20:24:29.214Z,1.08
2023-05-19T20:27:02.191Z,1.48
2023-05-19T20:29:35.136Z,0.95
2023-05-19T20:32:07.922Z,1.00
2023-05-19T20:34:41.241Z,1.40
2023-05-19T20:37:14.065Z,1.25
2023-05-19T20:39:47.217Z,1.50
2023-05-19T20:42:20.071Z,1.40
2023-05-19T20:44:54.327Z,1.23
2023-05-19T20:47:29.746Z,2.42
2023-05-19T20:50:03.957Z,2.58
2023-05-19T20:52:37.256Z,1.70
2023-05-19T20:55:10.577Z,1.45
2023-05-19T20:57:44.694Z,1.50
2023-05-19T21:00:19.113Z,1.10
2023-05-19T21:02:52.151Z,1.38
2023-05-19T21:05:25.509Z,1.20
2023-05-19T21:07:58.571Z,1.30
2023-05-19T21:10:32.003Z,1.30
2023-05-19T21:13:05.239Z,1.20
2023-05-19T21:15:38.557Z,1.20
2023-05-19T21:18:12.540Z,1.40
2023-05-19T21:20:46.200Z,1.20
2023-05-19T21:23:19.244Z,0.90
2023-05-19T21:25:52.399Z,1.27
2023-05-19T21:28:25.429Z,1.30
2023-05-19T21:30:58.580Z,1.30
2023-05-19T21:33:32.201Z,1.30
2023-05-19T21:36:05.920Z,1.20
2023-05-19T21:38:38.971Z,1.25
2023-05-19T21:41:12.171Z,1.05
2023-05-19T21:43:45.338Z,1.55
2023-05-19T21:46:18.999Z,1.25
2023-05-19T21:48:52.203Z,1.23
2023-05-19T21:51:25.368Z,1.45
2023-05-19T21:53:58.150Z,1.35
2023-05-19T21:56:31.155Z,0.85
2023-05-19T21:59:03.947Z,1.25
2023-05-19T22:01:37.131Z,1.33
2023-05-19T22:04:10.396Z,1.02
2023-05-19T22:06:43.592Z,1.27
2023-05-19T22:09:16.679Z,1.40
2023-05-19T22:11:51.053Z,1.33
2023-05-19T22:14:24.169Z,1.30
2023-05-19T22:16:57.115Z,1.30
2023-05-19T22:19:29.978Z,1.30
2023-05-19T22:22:13.319Z,1.20
2023-05-19T22:24:47.522Z,1.30
2023-05-19T22:27:20.438Z,1.10
2023-05-19T22:29:53.433Z,1.20
2023-05-19T22:32:26.510Z,1.30
2023-05-19T22:34:59.544Z,1.27
2023-05-19T22:37:32.493Z,1.08
2023-05-19T22:40:06.112Z,1.30
2023-05-19T22:42:39.302Z,1.30
2023-05-19T22:45:12.295Z,1.20
2023-05-19T22:47:45.354Z,1.13
2023-05-19T22:50:18.604Z,1.00
2023-05-19T22:52:51.670Z,1.03
2023-05-19T22:55:24.865Z,1.20
2023-05-19T22:57:58.382Z,1.40
2023-05-19T23:00:32.186Z,1.40
2023-05-19T23:03:06.429Z,1.10
2023-05-19T23:05:40.131Z,1.20
2023-05-19T23:08:13.048Z,1.40
2023-05-19T23:10:46.134Z,1.47
2023-05-19T23:13:19.275Z,1.20
2023-05-19T23:15:52.066Z,1.30
2023-05-19T23:18:25.168Z,1.20
2023-05-19T23:20:58.163Z,1.10
2023-05-19T23:23:31.032Z,1.20
2023-05-19T23:26:04.005Z,1.20
2023-05-19T23:28:37.390Z,1.00
2023-05-19T23:31:10.710Z,1.20
2023-05-19T23:33:43.643Z,1.10
2023-05-19T23:36:16.851Z,1.13
2023-05-19T23:38:49.688Z,1.07
2023-05-19T23:41:22.586Z,1.10
2023-05-19T23:43:55.540Z,1.40
2023-05-19T23:46:28.432Z,1.23
2023-05-19T23:49:01.778Z,1.20
2023-05-19T23:51:34.634Z,1.20
2023-05-19T23:54:07.851Z,1.10
2023-05-19T23:56:41.527Z,1.30
2023-05-19T23:59:14.530Z,0.93
